createdAt,value
2022-12-18T00:00:16.631Z,3.06
2022-12-18T00:00:48.019Z,3.45
2022-12-18T00:01:19.525Z,2.84
2022-12-18T00:01:51.209Z,3.33
2022-12-18T00:02:22.666Z,3.21
2022-12-18T00:02:54.302Z,3.02
2022-12-18T00:03:25.954Z,3.26
2022-12-18T00:04:04.942Z,3.15
2022-12-18T00:04:36.468Z,3.74
2022-12-18T00:05:07.865Z,2.95
2022-12-18T00:05:39.275Z,3.21
2022-12-18T00:06:10.668Z,3.20
2022-12-18T00:06:42.055Z,3.10
2022-12-18T00:07:13.743Z,2.84
2022-12-18T00:07:45.130Z,3.02
2022-12-18T00:08:16.521Z,2.90
2022-12-18T00:08:47.929Z,2.74
2022-12-18T00:09:19.331Z,3.40
2022-12-18T00:09:50.724Z,3.06
2022-12-18T00:10:22.115Z,2.86
2022-12-18T00:10:53.519Z,2.82
2022-12-18T00:11:25.507Z,3.05
2022-12-18T00:11:56.903Z,3.01
2022-12-18T00:12:29.999Z,3.19
2022-12-18T00:13:03.893Z,3.30
2022-12-18T00:13:38.358Z,3.15
2022-12-18T00:14:10.032Z,2.93
2022-12-18T00:14:41.659Z,2.82
2022-12-18T00:15:13.083Z,3.02
2022-12-18T00:15:44.542Z,3.03
2022-12-18T00:16:16.029Z,3.24
2022-12-18T00:16:47.475Z,3.31
2022-12-18T00:17:18.871Z,3.93
2022-12-18T00:17:50.382Z,2.92
2022-12-18T00:18:21.771Z,3.04
2022-12-18T00:18:53.183Z,2.81
2022-12-18T00:19:24.571Z,3.07
2022-12-18T00:19:55.955Z,3.43
2022-12-18T00:20:27.352Z,3.06
2022-12-18T00:20:58.750Z,3.28
2022-12-18T00:21:30.133Z,2.84
2022-12-18T00:22:01.534Z,2.83
2022-12-18T00:22:32.933Z,2.73
2022-12-18T00:23:04.423Z,2.89
2022-12-18T00:23:36.087Z,2.62
2022-12-18T00:24:07.741Z,2.96
2022-12-18T00:24:39.156Z,2.76
2022-12-18T00:25:10.572Z,2.74
2022-12-18T00:25:42.031Z,2.70
2022-12-18T00:26:13.468Z,2.86
2022-12-18T00:26:44.855Z,3.03
2022-12-18T00:27:16.263Z,2.61
2022-12-18T00:27:47.675Z,3.23
2022-12-18T00:28:19.195Z,2.84
2022-12-18T00:28:50.593Z,3.35
2022-12-18T00:29:21.980Z,3.28
2022-12-18T00:29:53.371Z,2.72
2022-12-18T00:30:24.782Z,3.31
2022-12-18T00:30:56.165Z,3.10
2022-12-18T00:31:27.636Z,3.04
2022-12-18T00:31:59.083Z,2.91
2022-12-18T00:32:30.530Z,3.36
2022-12-18T00:33:02.010Z,2.85
2022-12-18T00:33:33.429Z,3.34
2022-12-18T00:34:04.812Z,3.17
2022-12-18T00:34:36.216Z,3.14
2022-12-18T00:35:07.601Z,3.10
2022-12-18T00:35:38.999Z,2.88
2022-12-18T00:36:10.407Z,3.17
2022-12-18T00:36:41.814Z,2.90
2022-12-18T00:37:18.283Z,2.58
2022-12-18T00:37:51.356Z,2.76
2022-12-18T00:38:22.859Z,3.02
2022-12-18T00:38:54.286Z,3.30
2022-12-18T00:39:25.671Z,3.52
2022-12-18T00:39:57.054Z,2.65
2022-12-18T00:40:28.443Z,2.46
2022-12-18T00:40:59.851Z,2.72
2022-12-18T00:41:31.245Z,3.04
2022-12-18T00:42:02.660Z,2.71
2022-12-18T00:42:34.070Z,2.70
2022-12-18T00:43:05.454Z,2.87
2022-12-18T00:43:37.299Z,2.93
2022-12-18T00:44:09.157Z,2.66
2022-12-18T00:44:40.571Z,3.50
2022-12-18T00:45:13.174Z,3.29
2022-12-18T00:45:44.823Z,3.11
2022-12-18T00:46:16.449Z,3.22
2022-12-18T00:46:47.911Z,3.33
2022-12-18T00:47:19.298Z,3.39
2022-12-18T00:47:50.691Z,3.09
2022-12-18T00:48:22.083Z,2.94
2022-12-18T00:48:53.475Z,2.46
2022-12-18T00:49:24.950Z,2.99
2022-12-18T00:49:56.342Z,2.95
2022-12-18T00:50:27.725Z,2.88
2022-12-18T00:50:59.127Z,2.45
2022-12-18T00:51:30.518Z,3.25
2022-12-18T00:52:01.902Z,3.20
2022-12-18T00:52:33.311Z,3.61
2022-12-18T00:53:04.811Z,3.33
2022-12-18T00:53:36.541Z,2.83
2022-12-18T00:54:08.154Z,2.78
2022-12-18T00:54:39.543Z,2.93
2022-12-18T00:55:10.929Z,3.07
2022-12-18T00:55:42.327Z,3.08
2022-12-18T00:56:13.719Z,3.37
2022-12-18T00:56:49.481Z,2.59
2022-12-18T00:57:21.176Z,2.87
2022-12-18T00:57:52.561Z,2.69
2022-12-18T00:58:24.096Z,2.54
2022-12-18T00:58:55.487Z,2.94
2022-12-18T00:59:26.906Z,3.21
2022-12-18T00:59:58.298Z,2.64
2022-12-18T01:00:29.707Z,2.63
2022-12-18T01:01:01.141Z,2.61
2022-12-18T01:01:32.678Z,2.72
2022-12-18T01:02:04.247Z,3.07
2022-12-18T01:02:35.857Z,2.48
2022-12-18T01:03:07.350Z,3.01
2022-12-18T01:03:39.159Z,2.48
2022-12-18T01:04:12.233Z,2.70
2022-12-18T01:04:43.614Z,2.52
2022-12-18T01:05:15.024Z,2.90
2022-12-18T01:05:46.425Z,2.80
2022-12-18T01:06:17.811Z,2.97
2022-12-18T01:06:49.210Z,3.16
2022-12-18T01:07:20.615Z,2.68
2022-12-18T01:07:52.021Z,3.06
2022-12-18T01:08:23.411Z,2.65
2022-12-18T01:08:55.070Z,3.05
2022-12-18T01:09:26.455Z,3.12
2022-12-18T01:09:57.856Z,2.81
2022-12-18T01:10:29.246Z,2.97
2022-12-18T01:11:00.638Z,2.99
2022-12-18T01:11:32.022Z,3.17
2022-12-18T01:12:03.424Z,2.79
2022-12-18T01:12:34.805Z,2.72
2022-12-18T01:13:06.191Z,3.03
2022-12-18T01:13:37.877Z,3.20
2022-12-18T01:14:09.548Z,2.37
2022-12-18T01:14:40.951Z,2.68
2022-12-18T01:15:12.337Z,3.04
2022-12-18T01:15:43.723Z,2.92
2022-12-18T01:16:15.156Z,2.62
2022-12-18T01:16:46.634Z,2.56
2022-12-18T01:17:18.072Z,2.65
2022-12-18T01:17:49.477Z,2.74
2022-12-18T01:18:20.861Z,3.27
2022-12-18T01:18:52.237Z,2.93
2022-12-18T01:19:23.704Z,3.27
2022-12-18T01:19:55.115Z,2.76
2022-12-18T01:20:26.504Z,2.90
2022-12-18T01:20:57.897Z,2.71
2022-12-18T01:21:29.289Z,2.52
2022-12-18T01:22:00.675Z,2.87
2022-12-18T01:22:32.068Z,2.90
2022-12-18T01:23:03.463Z,2.84
2022-12-18T01:23:35.006Z,2.60
2022-12-18T01:24:06.518Z,2.66
2022-12-18T01:24:37.984Z,2.53
2022-12-18T01:25:09.393Z,2.47
2022-12-18T01:25:40.780Z,2.61
2022-12-18T01:26:12.163Z,2.58
2022-12-18T01:26:43.549Z,2.66
2022-12-18T01:27:14.942Z,2.32
2022-12-18T01:27:46.331Z,2.73
2022-12-18T01:28:17.723Z,2.90
2022-12-18T01:28:49.122Z,2.96
2022-12-18T01:29:20.507Z,2.96
2022-12-18T01:29:52.042Z,2.77
2022-12-18T01:30:23.630Z,2.77
2022-12-18T01:30:55.022Z,2.78
2022-12-18T01:31:26.476Z,2.66
2022-12-18T01:31:57.924Z,2.55
2022-12-18T01:32:29.338Z,3.22
2022-12-18T01:33:00.718Z,3.16
2022-12-18T01:33:32.107Z,2.52
2022-12-18T01:34:03.508Z,2.78
2022-12-18T01:34:34.897Z,2.83
2022-12-18T01:35:06.338Z,2.38
2022-12-18T01:35:37.731Z,2.45
2022-12-18T01:36:09.140Z,2.83
2022-12-18T01:36:40.530Z,3.20
2022-12-18T01:37:11.919Z,3.20
2022-12-18T01:37:43.306Z,2.82
2022-12-18T01:38:14.690Z,3.30
2022-12-18T01:38:46.240Z,3.09
2022-12-18T01:39:17.631Z,2.66
2022-12-18T01:39:49.039Z,2.69
2022-12-18T01:40:20.558Z,2.69
2022-12-18T01:40:51.943Z,2.76
2022-12-18T01:41:23.350Z,2.56
2022-12-18T01:41:54.730Z,2.41
2022-12-18T01:42:26.135Z,2.11
2022-12-18T01:42:57.534Z,2.49
2022-12-18T01:43:28.931Z,2.74
2022-12-18T01:44:00.322Z,2.54
2022-12-18T01:44:31.706Z,2.40
2022-12-18T01:45:03.103Z,2.63
2022-12-18T01:45:34.604Z,2.46
2022-12-18T01:46:06.115Z,2.59
2022-12-18T01:46:37.511Z,2.31
2022-12-18T01:47:08.899Z,3.07
2022-12-18T01:47:40.302Z,2.74
2022-12-18T01:48:11.705Z,2.42
2022-12-18T01:48:43.088Z,2.78
2022-12-18T01:49:14.568Z,2.50
2022-12-18T01:49:45.955Z,2.49
2022-12-18T01:50:17.369Z,2.32
2022-12-18T01:50:48.877Z,2.30
2022-12-18T01:51:20.271Z,2.67
2022-12-18T01:51:52.175Z,2.41
2022-12-18T01:52:23.567Z,2.49
2022-12-18T01:52:54.979Z,2.63
2022-12-18T01:53:26.380Z,2.85
2022-12-18T01:53:57.792Z,2.56
2022-12-18T01:54:29.184Z,2.86
2022-12-18T01:55:00.601Z,2.78
2022-12-18T01:55:31.991Z,2.65
2022-12-18T01:56:03.451Z,2.59
2022-12-18T01:56:34.845Z,3.01
2022-12-18T01:57:06.260Z,2.57
2022-12-18T01:57:37.676Z,2.46
2022-12-18T01:58:09.058Z,2.45
2022-12-18T01:58:40.470Z,2.62
2022-12-18T01:59:11.961Z,2.01
2022-12-18T01:59:43.359Z,2.63
2022-12-18T02:00:14.769Z,2.75
2022-12-18T02:00:46.206Z,2.60
2022-12-18T02:01:17.922Z,2.87
2022-12-18T02:01:49.535Z,2.27
2022-12-18T02:02:21.093Z,2.58
2022-12-18T02:02:52.765Z,2.77
2022-12-18T02:03:24.452Z,2.19
2022-12-18T02:03:55.859Z,2.18
2022-12-18T02:04:27.364Z,2.46
2022-12-18T02:04:58.798Z,2.43
2022-12-18T02:05:30.200Z,2.49
2022-12-18T02:06:01.618Z,2.56
2022-12-18T02:06:33.101Z,2.73
2022-12-18T02:07:04.489Z,2.89
2022-12-18T02:07:35.895Z,2.74
2022-12-18T02:08:07.315Z,2.64
2022-12-18T02:08:38.698Z,2.40
2022-12-18T02:09:10.101Z,2.43
2022-12-18T02:09:41.509Z,3.09
2022-12-18T02:10:12.923Z,2.52
2022-12-18T02:10:44.331Z,2.45
2022-12-18T02:11:15.737Z,2.76
2022-12-18T02:11:47.270Z,2.39
2022-12-18T02:12:18.679Z,2.30
2022-12-18T02:12:50.072Z,2.39
2022-12-18T02:13:21.949Z,2.40
2022-12-18T02:13:53.345Z,2.61
2022-12-18T02:14:24.743Z,1.96
2022-12-18T02:14:56.127Z,2.43
2022-12-18T02:15:27.516Z,2.29
2022-12-18T02:15:58.930Z,2.32
2022-12-18T02:16:30.354Z,2.34
2022-12-18T02:17:02.034Z,2.13
2022-12-18T02:17:33.479Z,2.28
2022-12-18T02:18:04.868Z,2.31
2022-12-18T02:18:36.251Z,2.49
2022-12-18T02:19:07.674Z,2.45
2022-12-18T02:19:39.077Z,2.80
2022-12-18T02:20:10.479Z,2.29
2022-12-18T02:20:41.880Z,2.52
2022-12-18T02:21:13.266Z,2.36
2022-12-18T02:21:45.341Z,2.59
2022-12-18T02:22:16.818Z,2.53
2022-12-18T02:22:48.207Z,2.27
2022-12-18T02:23:19.617Z,2.47
2022-12-18T02:23:50.999Z,2.36
2022-12-18T02:24:22.398Z,2.30
2022-12-18T02:24:53.806Z,2.70
2022-12-18T02:25:25.199Z,2.63
2022-12-18T02:25:56.587Z,2.33
2022-12-18T02:26:27.973Z,2.81
2022-12-18T02:26:59.366Z,2.71
2022-12-18T02:27:30.983Z,2.32
2022-12-18T02:28:02.365Z,2.49
2022-12-18T02:28:33.753Z,2.47
2022-12-18T02:29:05.140Z,2.22
2022-12-18T02:29:36.522Z,2.41
2022-12-18T02:30:07.907Z,2.17
2022-12-18T02:30:40.628Z,2.16
2022-12-18T02:31:12.906Z,2.57
2022-12-18T02:31:44.319Z,2.46
2022-12-18T02:32:15.712Z,2.47
2022-12-18T02:32:47.222Z,2.21
2022-12-18T02:33:18.603Z,2.99
2022-12-18T02:33:49.991Z,2.54
2022-12-18T02:34:21.382Z,2.62
2022-12-18T02:34:52.779Z,2.14
2022-12-18T02:35:24.183Z,2.66
2022-12-18T02:35:55.566Z,2.42
2022-12-18T02:36:26.975Z,2.53
2022-12-18T02:36:58.359Z,2.84
2022-12-18T02:37:29.753Z,2.38
2022-12-18T02:38:01.265Z,2.27
2022-12-18T02:38:32.645Z,2.11
2022-12-18T02:39:04.036Z,2.36
2022-12-18T02:39:35.431Z,2.61
2022-12-18T02:40:06.838Z,2.66
2022-12-18T02:40:38.231Z,2.56
2022-12-18T02:41:09.614Z,2.59
2022-12-18T02:41:41.008Z,2.72
2022-12-18T02:42:12.406Z,2.66
2022-12-18T02:42:43.806Z,2.50
2022-12-18T02:43:15.216Z,2.59
2022-12-18T02:43:46.608Z,2.14
2022-12-18T02:44:17.994Z,1.93
2022-12-18T02:44:49.378Z,2.45
2022-12-18T02:45:20.762Z,2.07
2022-12-18T02:45:52.191Z,1.88
2022-12-18T02:46:23.612Z,2.67
2022-12-18T02:46:55.125Z,2.74
2022-12-18T02:47:26.514Z,2.34
2022-12-18T02:47:57.899Z,2.18
2022-12-18T02:48:29.292Z,2.02
2022-12-18T02:49:00.846Z,2.27
2022-12-18T02:49:32.229Z,2.52
2022-12-18T02:50:03.633Z,2.31
2022-12-18T02:50:35.051Z,2.57
2022-12-18T02:51:06.447Z,2.60
2022-12-18T02:51:37.839Z,2.26
2022-12-18T02:52:09.231Z,2.00
2022-12-18T02:52:40.683Z,2.58
2022-12-18T02:53:12.079Z,2.24
2022-12-18T02:53:43.474Z,2.52
2022-12-18T02:54:14.866Z,2.84
2022-12-18T02:54:46.215Z,2.72
2022-12-18T02:55:17.627Z,2.36
2022-12-18T02:55:49.014Z,2.28
2022-12-18T02:56:20.401Z,2.52
2022-12-18T02:56:51.795Z,2.82
2022-12-18T02:57:23.208Z,2.47
2022-12-18T02:57:54.739Z,2.69
2022-12-18T02:58:26.132Z,2.54
2022-12-18T02:58:57.547Z,2.38
2022-12-18T02:59:28.962Z,2.50
2022-12-18T03:00:00.350Z,2.32
2022-12-18T03:00:31.735Z,2.37
2022-12-18T03:01:03.244Z,2.69
2022-12-18T03:01:34.792Z,2.61
2022-12-18T03:02:06.538Z,2.54
2022-12-18T03:02:38.159Z,2.41
2022-12-18T03:03:09.756Z,2.21
2022-12-18T03:03:41.683Z,2.32
2022-12-18T03:04:13.391Z,2.67
2022-12-18T03:04:44.784Z,2.38
2022-12-18T03:05:16.184Z,2.72
2022-12-18T03:05:47.576Z,2.33
2022-12-18T03:06:19.033Z,2.26
2022-12-18T03:06:50.419Z,2.53
2022-12-18T03:07:21.811Z,2.31
2022-12-18T03:07:53.205Z,2.53
2022-12-18T03:08:24.907Z,2.59
2022-12-18T03:08:56.295Z,2.44
2022-12-18T03:09:27.707Z,2.38
2022-12-18T03:09:59.709Z,2.78
2022-12-18T03:10:31.098Z,2.71
2022-12-18T03:11:02.492Z,2.83
2022-12-18T03:11:33.899Z,2.65
2022-12-18T03:12:05.286Z,2.85
2022-12-18T03:12:36.677Z,2.91
2022-12-18T03:13:08.057Z,2.43
2022-12-18T03:13:40.265Z,3.05
2022-12-18T03:14:11.938Z,2.28
2022-12-18T03:14:43.340Z,2.42
2022-12-18T03:15:17.618Z,2.59
2022-12-18T03:15:49.425Z,2.36
2022-12-18T03:16:20.839Z,2.42
2022-12-18T03:16:52.350Z,2.63
2022-12-18T03:17:23.778Z,2.21
2022-12-18T03:17:55.204Z,2.46
2022-12-18T03:18:26.601Z,2.83
2022-12-18T03:18:58.006Z,2.54
2022-12-18T03:19:29.391Z,2.77
2022-12-18T03:20:00.782Z,2.03
2022-12-18T03:20:32.178Z,2.39
2022-12-18T03:21:03.571Z,2.46
2022-12-18T03:21:34.953Z,2.20
2022-12-18T03:22:06.353Z,2.30
2022-12-18T03:22:37.738Z,2.71
2022-12-18T03:23:09.211Z,2.20
2022-12-18T03:23:40.993Z,2.17
2022-12-18T03:24:12.633Z,2.31
2022-12-18T03:24:44.039Z,2.40
2022-12-18T03:25:15.444Z,2.57
2022-12-18T03:25:46.849Z,2.45
2022-12-18T03:26:18.257Z,2.81
2022-12-18T03:26:49.653Z,1.81
2022-12-18T03:27:21.063Z,2.06
2022-12-18T03:27:52.471Z,1.99
2022-12-18T03:28:23.994Z,2.24
2022-12-18T03:28:55.395Z,2.60
2022-12-18T03:29:26.792Z,2.82
2022-12-18T03:29:58.188Z,2.51
2022-12-18T03:30:29.655Z,2.19
2022-12-18T03:31:01.141Z,2.44
2022-12-18T03:31:32.596Z,2.10
2022-12-18T03:32:03.987Z,2.04
2022-12-18T03:32:35.374Z,2.13
2022-12-18T03:33:07.231Z,1.73
2022-12-18T03:33:38.953Z,1.86
2022-12-18T03:34:10.690Z,2.74
2022-12-18T03:34:42.074Z,2.33
2022-12-18T03:35:13.483Z,2.68
2022-12-18T03:35:44.890Z,2.25
2022-12-18T03:36:16.299Z,2.45
2022-12-18T03:36:47.706Z,2.27
2022-12-18T03:37:19.099Z,1.84
2022-12-18T03:37:50.490Z,2.36
2022-12-18T03:38:21.895Z,2.24
2022-12-18T03:38:53.341Z,2.05
2022-12-18T03:39:24.817Z,1.79
2022-12-18T03:39:56.231Z,1.94
2022-12-18T03:40:27.614Z,2.07
2022-12-18T03:40:58.997Z,2.33
2022-12-18T03:41:30.383Z,2.23
2022-12-18T03:42:01.807Z,2.28
2022-12-18T03:42:33.222Z,2.23
2022-12-18T03:43:04.637Z,2.21
2022-12-18T03:43:36.286Z,2.29
2022-12-18T03:44:08.027Z,2.04
2022-12-18T03:44:39.409Z,2.07
2022-12-18T03:45:10.797Z,2.45
2022-12-18T03:45:42.264Z,2.44
2022-12-18T03:46:13.711Z,2.69
2022-12-18T03:46:45.146Z,2.59
2022-12-18T03:47:16.540Z,2.57
2022-12-18T03:47:47.930Z,2.38
2022-12-18T03:48:19.338Z,2.12
2022-12-18T03:48:50.727Z,1.88
2022-12-18T03:49:22.493Z,2.43
2022-12-18T03:49:53.880Z,2.45
2022-12-18T03:50:25.268Z,2.56
2022-12-18T03:50:56.673Z,2.64
2022-12-18T03:51:28.082Z,2.51
2022-12-18T03:51:59.480Z,2.19
2022-12-18T03:52:30.888Z,2.06
2022-12-18T03:53:02.286Z,2.26
2022-12-18T03:53:33.694Z,2.07
2022-12-18T03:54:05.104Z,2.80
2022-12-18T03:54:36.537Z,2.34
2022-12-18T03:55:07.921Z,2.65
2022-12-18T03:55:39.311Z,2.15
2022-12-18T03:56:10.794Z,2.22
2022-12-18T03:56:42.226Z,2.57
2022-12-18T03:57:13.611Z,2.08
2022-12-18T03:57:44.999Z,2.13
2022-12-18T03:58:16.407Z,2.13
2022-12-18T03:58:47.805Z,2.56
2022-12-18T03:59:19.346Z,2.51
2022-12-18T03:59:50.730Z,2.33
2022-12-18T04:00:22.134Z,2.33
2022-12-18T04:00:53.541Z,2.25
2022-12-18T04:01:25.007Z,2.25
2022-12-18T04:01:56.567Z,2.29
2022-12-18T04:02:28.058Z,2.19
2022-12-18T04:02:59.506Z,2.30
2022-12-18T04:03:30.955Z,2.03
2022-12-18T04:04:02.449Z,2.32
2022-12-18T04:04:33.910Z,2.41
2022-12-18T04:05:05.314Z,2.14
2022-12-18T04:05:36.704Z,2.12
2022-12-18T04:06:08.090Z,2.26
2022-12-18T04:06:39.481Z,2.19
2022-12-18T04:07:10.896Z,2.81
2022-12-18T04:07:42.310Z,2.50
2022-12-18T04:08:13.704Z,2.40
2022-12-18T04:08:45.093Z,2.39
2022-12-18T04:09:16.493Z,2.29
2022-12-18T04:09:48.012Z,2.44
2022-12-18T04:10:19.398Z,2.59
2022-12-18T04:10:50.791Z,1.97
2022-12-18T04:11:22.197Z,1.58
2022-12-18T04:11:53.578Z,2.38
2022-12-18T04:12:24.963Z,2.08
2022-12-18T04:12:56.376Z,2.27
2022-12-18T04:13:27.787Z,2.18
2022-12-18T04:13:59.195Z,2.21
2022-12-18T04:14:30.586Z,2.34
2022-12-18T04:15:02.054Z,2.35
2022-12-18T04:15:33.527Z,1.74
2022-12-18T04:16:05.013Z,2.26
2022-12-18T04:16:36.575Z,2.20
2022-12-18T04:17:07.967Z,2.46
2022-12-18T04:17:39.360Z,2.25
2022-12-18T04:18:10.767Z,2.19
2022-12-18T04:18:42.152Z,2.08
2022-12-18T04:19:13.545Z,1.91
2022-12-18T04:19:44.993Z,2.30
2022-12-18T04:20:16.387Z,1.83
2022-12-18T04:20:47.788Z,1.79
2022-12-18T04:21:19.179Z,2.12
2022-12-18T04:21:50.591Z,2.52
2022-12-18T04:22:21.980Z,2.44
2022-12-18T04:22:53.367Z,2.46
2022-12-18T04:23:24.795Z,2.42
2022-12-18T04:23:56.184Z,2.16
2022-12-18T04:24:27.591Z,2.14
2022-12-18T04:24:59.043Z,2.11
2022-12-18T04:25:30.455Z,2.24
2022-12-18T04:26:01.847Z,2.25
2022-12-18T04:26:33.254Z,2.22
2022-12-18T04:27:04.654Z,2.52
2022-12-18T04:27:37.714Z,2.21
2022-12-18T04:28:09.101Z,1.95
2022-12-18T04:28:40.485Z,2.45
2022-12-18T04:29:11.884Z,2.19
2022-12-18T04:29:43.285Z,2.02
2022-12-18T04:30:14.759Z,1.74
2022-12-18T04:30:46.170Z,1.81
2022-12-18T04:31:17.618Z,1.97
2022-12-18T04:31:49.080Z,1.96
2022-12-18T04:32:20.476Z,1.88
2022-12-18T04:32:52.473Z,2.31
2022-12-18T04:33:23.957Z,2.25
2022-12-18T04:33:55.344Z,2.46
2022-12-18T04:34:26.752Z,2.46
2022-12-18T04:34:58.162Z,2.69
2022-12-18T04:35:29.587Z,2.38
2022-12-18T04:36:00.974Z,2.64
2022-12-18T04:36:32.377Z,2.30
2022-12-18T04:37:03.867Z,2.46
2022-12-18T04:37:35.274Z,2.17
2022-12-18T04:38:06.664Z,2.48
2022-12-18T04:38:38.083Z,2.05
2022-12-18T04:39:09.508Z,2.02
2022-12-18T04:39:40.897Z,2.34
2022-12-18T04:40:12.285Z,2.37
2022-12-18T04:40:43.808Z,2.71
2022-12-18T04:41:15.189Z,2.19
2022-12-18T04:41:46.574Z,2.41
2022-12-18T04:42:17.967Z,1.98
2022-12-18T04:42:49.380Z,2.13
2022-12-18T04:43:20.899Z,1.98
2022-12-18T04:43:52.355Z,2.21
2022-12-18T04:44:23.751Z,2.47
2022-12-18T04:44:55.140Z,1.89
2022-12-18T04:45:26.559Z,2.18
2022-12-18T04:45:58.102Z,2.21
2022-12-18T04:46:29.555Z,2.15
2022-12-18T04:47:00.986Z,2.01
2022-12-18T04:47:32.389Z,2.38
2022-12-18T04:48:03.773Z,2.18
2022-12-18T04:48:35.169Z,2.10
2022-12-18T04:49:06.656Z,2.28
2022-12-18T04:49:38.062Z,2.02
2022-12-18T04:50:09.443Z,2.41
2022-12-18T04:50:40.849Z,2.28
2022-12-18T04:51:12.425Z,2.37
2022-12-18T04:51:43.840Z,2.21
2022-12-18T04:52:15.242Z,2.31
2022-12-18T04:52:46.638Z,1.91
2022-12-18T04:53:18.045Z,2.52
2022-12-18T04:53:49.457Z,2.44
2022-12-18T04:54:20.866Z,2.08
2022-12-18T04:54:52.258Z,2.08
2022-12-18T04:55:23.667Z,1.84
2022-12-18T04:55:55.074Z,2.09
2022-12-18T04:56:26.581Z,2.14
2022-12-18T04:56:57.983Z,1.81
2022-12-18T04:57:29.374Z,2.29
2022-12-18T04:58:00.763Z,2.32
2022-12-18T04:58:32.151Z,2.28
2022-12-18T04:59:03.557Z,2.07
2022-12-18T04:59:34.950Z,1.87
2022-12-18T05:00:06.361Z,2.35
2022-12-18T05:00:37.747Z,2.42
2022-12-18T05:01:09.175Z,2.00
2022-12-18T05:01:40.681Z,2.21
2022-12-18T05:02:12.191Z,2.45
2022-12-18T05:02:43.791Z,2.32
2022-12-18T05:03:15.329Z,1.99
2022-12-18T05:03:46.788Z,1.89
2022-12-18T05:04:18.259Z,2.08
2022-12-18T05:04:49.854Z,1.93
2022-12-18T05:05:21.263Z,2.40
2022-12-18T05:05:52.654Z,2.02
2022-12-18T05:06:24.194Z,2.22
2022-12-18T05:06:55.584Z,2.05
2022-12-18T05:07:26.993Z,2.08
2022-12-18T05:07:58.382Z,2.21
2022-12-18T05:08:29.766Z,2.18
2022-12-18T05:09:01.187Z,2.05
2022-12-18T05:09:32.576Z,2.09
2022-12-18T05:10:03.978Z,1.81
2022-12-18T05:10:38.339Z,2.20
2022-12-18T05:11:10.006Z,1.70
2022-12-18T05:11:42.027Z,1.72
2022-12-18T05:12:13.417Z,2.00
2022-12-18T05:12:44.810Z,1.96
2022-12-18T05:13:16.190Z,2.41
2022-12-18T05:13:47.600Z,2.22
2022-12-18T05:14:18.987Z,2.26
2022-12-18T05:14:50.393Z,2.18
2022-12-18T05:15:21.791Z,2.13
2022-12-18T05:15:53.218Z,2.49
2022-12-18T05:16:24.678Z,2.25
2022-12-18T05:17:00.709Z,2.02
2022-12-18T05:17:32.531Z,2.03
2022-12-18T05:18:03.916Z,2.53
2022-12-18T05:18:35.301Z,2.30
2022-12-18T05:19:06.696Z,1.77
2022-12-18T05:19:38.107Z,2.43
2022-12-18T05:20:09.491Z,2.05
2022-12-18T05:20:40.966Z,2.30
2022-12-18T05:21:12.357Z,2.14
2022-12-18T05:21:43.764Z,2.29
2022-12-18T05:22:15.606Z,2.11
2022-12-18T05:22:46.997Z,1.95
2022-12-18T05:23:18.403Z,2.15
2022-12-18T05:23:49.829Z,2.14
2022-12-18T05:24:21.228Z,2.59
2022-12-18T05:24:52.703Z,1.96
2022-12-18T05:25:24.118Z,1.85
2022-12-18T05:25:55.526Z,1.95
2022-12-18T05:26:26.918Z,2.07
2022-12-18T05:26:58.333Z,2.39
2022-12-18T05:27:29.723Z,2.59
2022-12-18T05:28:01.130Z,2.06
2022-12-18T05:28:32.538Z,2.14
2022-12-18T05:29:03.932Z,2.24
2022-12-18T05:29:35.320Z,2.43
2022-12-18T05:30:06.728Z,1.92
2022-12-18T05:30:38.115Z,2.06
2022-12-18T05:31:09.644Z,2.12
2022-12-18T05:31:41.142Z,1.80
2022-12-18T05:32:14.141Z,2.25
2022-12-18T05:32:45.549Z,2.20
2022-12-18T05:33:16.940Z,2.04
2022-12-18T05:33:48.327Z,1.89
2022-12-18T05:34:19.711Z,2.26
2022-12-18T05:34:51.113Z,1.80
2022-12-18T05:35:22.514Z,1.96
2022-12-18T05:35:53.903Z,2.28
2022-12-18T05:36:25.389Z,2.50
2022-12-18T05:36:56.780Z,2.18
2022-12-18T05:37:28.186Z,1.75
2022-12-18T05:37:59.575Z,2.35
2022-12-18T05:38:31.203Z,2.19
2022-12-18T05:39:02.610Z,2.13
2022-12-18T05:39:34.016Z,2.28
2022-12-18T05:40:05.409Z,2.39
2022-12-18T05:40:36.816Z,2.01
2022-12-18T05:41:08.204Z,1.72
2022-12-18T05:41:39.670Z,1.99
2022-12-18T05:42:11.050Z,1.65
2022-12-18T05:42:42.454Z,2.02
2022-12-18T05:43:19.358Z,1.96
2022-12-18T05:43:52.476Z,2.14
2022-12-18T05:44:23.888Z,1.92
2022-12-18T05:44:55.292Z,2.12
2022-12-18T05:45:26.712Z,2.09
2022-12-18T05:45:58.135Z,2.12
2022-12-18T05:46:29.593Z,2.03
2022-12-18T05:47:01.132Z,1.67
2022-12-18T05:47:32.549Z,2.10
2022-12-18T05:48:03.947Z,1.91
2022-12-18T05:48:35.340Z,1.99
2022-12-18T05:49:06.733Z,2.15
2022-12-18T05:49:38.143Z,1.93
2022-12-18T05:50:09.560Z,2.14
2022-12-18T05:50:40.951Z,2.14
2022-12-18T05:51:12.353Z,2.45
2022-12-18T05:51:43.747Z,2.42
2022-12-18T05:52:15.267Z,2.36
2022-12-18T05:52:46.652Z,2.34
2022-12-18T05:53:18.042Z,2.31
2022-12-18T05:53:49.433Z,2.26
2022-12-18T05:54:20.819Z,1.89
2022-12-18T05:54:52.221Z,1.79
2022-12-18T05:55:23.612Z,2.30
2022-12-18T05:55:55.339Z,1.69
2022-12-18T05:56:26.745Z,2.10
2022-12-18T05:56:58.143Z,2.14
2022-12-18T05:57:29.611Z,1.83
2022-12-18T05:58:00.999Z,2.31
2022-12-18T05:58:32.412Z,2.15
2022-12-18T05:59:03.815Z,1.96
2022-12-18T05:59:35.205Z,2.13
2022-12-18T06:00:06.595Z,1.72
2022-12-18T06:00:38.000Z,2.40
2022-12-18T06:01:09.386Z,2.30
2022-12-18T06:01:40.879Z,2.08
2022-12-18T06:02:12.518Z,1.83
2022-12-18T06:02:44.159Z,2.21
2022-12-18T06:03:15.667Z,1.97
2022-12-18T06:03:47.551Z,1.82
2022-12-18T06:04:19.249Z,2.12
2022-12-18T06:04:50.650Z,1.75
2022-12-18T06:05:22.052Z,2.04
2022-12-18T06:05:53.463Z,1.99
2022-12-18T06:06:24.855Z,1.83
2022-12-18T06:06:56.252Z,2.27
2022-12-18T06:07:27.660Z,2.03
2022-12-18T06:07:59.172Z,2.20
2022-12-18T06:08:30.563Z,2.00
2022-12-18T06:09:02.063Z,2.24
2022-12-18T06:09:33.453Z,2.31
2022-12-18T06:10:04.838Z,2.02
2022-12-18T06:10:36.306Z,2.01
2022-12-18T06:11:07.695Z,2.30
2022-12-18T06:11:39.091Z,2.02
2022-12-18T06:12:10.481Z,2.14
2022-12-18T06:12:41.866Z,2.30
2022-12-18T06:13:13.640Z,2.05
2022-12-18T06:13:45.022Z,2.12
2022-12-18T06:14:16.405Z,2.22
2022-12-18T06:14:47.936Z,2.52
2022-12-18T06:15:19.323Z,1.75
2022-12-18T06:15:50.785Z,2.11
2022-12-18T06:16:22.263Z,2.24
2022-12-18T06:16:53.659Z,1.93
2022-12-18T06:17:25.052Z,1.85
2022-12-18T06:17:56.457Z,2.11
2022-12-18T06:18:27.881Z,1.98
2022-12-18T06:18:59.275Z,2.00
2022-12-18T06:19:31.320Z,2.28
2022-12-18T06:20:02.711Z,2.13
2022-12-18T06:20:34.273Z,1.93
2022-12-18T06:21:05.696Z,2.11
2022-12-18T06:21:37.083Z,2.56
2022-12-18T06:22:08.493Z,2.57
2022-12-18T06:22:39.880Z,2.02
2022-12-18T06:23:11.297Z,2.25
2022-12-18T06:23:43.025Z,2.09
2022-12-18T06:24:14.583Z,1.95
2022-12-18T06:24:46.014Z,2.37
2022-12-18T06:25:17.418Z,2.04
2022-12-18T06:25:48.802Z,2.08
2022-12-18T06:26:24.659Z,2.07
2022-12-18T06:26:59.140Z,2.04
2022-12-18T06:27:30.536Z,2.16
2022-12-18T06:28:01.942Z,1.62
2022-12-18T06:28:33.338Z,1.83
2022-12-18T06:29:04.827Z,1.89
2022-12-18T06:29:36.242Z,1.73
2022-12-18T06:30:07.705Z,2.17
2022-12-18T06:30:39.128Z,2.28
2022-12-18T06:31:10.596Z,1.94
2022-12-18T06:31:42.083Z,2.16
2022-12-18T06:32:13.497Z,2.33
2022-12-18T06:32:44.911Z,2.42
2022-12-18T06:33:19.197Z,2.09
2022-12-18T06:33:50.582Z,2.21
2022-12-18T06:34:22.159Z,1.76
2022-12-18T06:34:53.568Z,1.83
2022-12-18T06:35:24.983Z,2.17
2022-12-18T06:36:00.908Z,2.26
2022-12-18T06:36:32.660Z,2.30
2022-12-18T06:37:04.050Z,2.28
2022-12-18T06:37:35.440Z,2.07
2022-12-18T06:38:06.857Z,2.10
2022-12-18T06:38:38.606Z,1.91
2022-12-18T06:39:10.263Z,1.82
2022-12-18T06:39:41.760Z,2.10
2022-12-18T06:40:13.164Z,2.02
2022-12-18T06:40:44.554Z,1.95
2022-12-18T06:41:15.970Z,2.09
2022-12-18T06:41:47.354Z,2.36
2022-12-18T06:42:18.744Z,2.11
2022-12-18T06:42:50.132Z,2.12
2022-12-18T06:43:21.529Z,2.04
2022-12-18T06:43:56.804Z,1.98
2022-12-18T06:44:29.615Z,1.99
2022-12-18T06:45:01.003Z,2.01
2022-12-18T06:45:32.439Z,1.94
2022-12-18T06:46:03.885Z,1.79
2022-12-18T06:46:35.342Z,2.21
2022-12-18T06:47:06.752Z,2.13
2022-12-18T06:47:38.147Z,2.05
2022-12-18T06:48:09.530Z,1.87
2022-12-18T06:48:40.913Z,1.90
2022-12-18T06:49:12.299Z,2.44
2022-12-18T06:49:43.759Z,2.25
2022-12-18T06:50:15.158Z,2.06
2022-12-18T06:50:46.569Z,1.98
2022-12-18T06:51:18.061Z,1.91
2022-12-18T06:51:49.463Z,2.00
2022-12-18T06:52:20.877Z,2.00
2022-12-18T06:52:52.267Z,1.89
2022-12-18T06:53:23.668Z,2.08
2022-12-18T06:53:55.063Z,1.94
2022-12-18T06:54:26.484Z,2.23
2022-12-18T06:54:57.922Z,2.13
2022-12-18T06:55:29.311Z,1.89
2022-12-18T06:56:03.943Z,2.34
2022-12-18T06:56:39.359Z,1.91
2022-12-18T06:57:10.744Z,2.08
2022-12-18T06:57:42.168Z,2.08
2022-12-18T06:58:13.557Z,2.04
2022-12-18T06:58:44.967Z,2.22
2022-12-18T06:59:16.359Z,2.21
2022-12-18T06:59:47.752Z,1.98